Time;durP1;ratioP1;P1;durP2;ratioP2;P2;SDS_P1;SDS_P2;PMS_P1;PMS_P2;Temp;Humidity;BMP_temperature;BMP_pressure;BME280_temperature;BME280_humidity;BME280_pressure;Samples;Min_cycle;Max_cycle;Signal;HPM_P1;HPM_P2
2022/04/23 00:01:37;;;;;;;11.00;5.15;;;;;;;;;;5033215;28;20064;-74
2022/04/23 00:04:04;;;;;;;9.75;4.60;;;;;;;;;;5039079;28;20049;-74
2022/04/23 00:06:32;;;;;;;10.68;4.93;;;;;;;;;;5040097;28;20776;-74
2022/04/23 00:09:00;;;;;;;12.40;4.78;;;;;;;;;;5033235;28;20056;-74
2022/04/23 00:11:27;;;;;;;10.10;5.72;;;;;;;;;;5037826;28;20042;-74
2022/04/23 00:13:55;;;;;;;9.90;5.30;;;;;;;;;;5034320;28;20076;-74
2022/04/23 00:16:23;;;;;;;11.98;5.90;;;;;;;;;;5037771;28;20165;-74
2022/04/23 00:18:50;;;;;;;11.82;5.57;;;;;;;;;;5039292;28;20056;-74
2022/04/23 00:21:19;;;;;;;11.30;5.32;;;;;;;;;;5037066;28;20053;-74
2022/04/23 00:23:46;;;;;;;14.50;6.00;;;;;;;;;;5033472;28;20115;-74
2022/04/23 00:26:15;;;;;;;12.15;5.60;;;;;;;;;;5031742;28;20081;-74
2022/04/23 00:28:42;;;;;;;15.30;5.82;;;;;;;;;;5033605;28;20049;-74
2022/04/23 00:31:09;;;;;;;8.60;5.50;;;;;;;;;;5037521;28;20057;-74
2022/04/23 00:33:37;;;;;;;11.00;5.63;;;;;;;;;;5034149;28;20071;-74
2022/04/23 00:36:05;;;;;;;11.27;5.78;;;;;;;;;;5033957;28;20841;-74
2022/04/23 00:38:33;;;;;;;10.48;5.70;;;;;;;;;;5036083;28;20060;-74
2022/04/23 00:41:00;;;;;;;10.25;5.47;;;;;;;;;;5039959;28;20479;-74
2022/04/23 00:43:30;;;;;;;8.98;5.60;;;;;;;;;;5037035;28;20481;-74
2022/04/23 00:45:58;;;;;;;11.70;6.10;;;;;;;;;;5031500;28;20075;-74
2022/04/23 00:48:26;;;;;;;12.68;5.70;;;;;;;;;;5039929;28;20053;-74
2022/04/23 00:50:54;;;;;;;13.90;6.03;;;;;;;;;;5040111;28;20073;-74
2022/04/23 00:53:21;;;;;;;12.38;6.10;;;;;;;;;;5035121;28;20132;-74
2022/04/23 00:55:48;;;;;;;11.93;6.05;;;;;;;;;;5045640;28;20056;-74
2022/04/23 00:58:16;;;;;;;15.57;6.30;;;;;;;;;;5042562;28;20053;-74
2022/04/23 01:00:45;;;;;;;11.15;5.68;;;;;;;;;;5046667;28;20041;-74
2022/04/23 01:03:13;;;;;;;13.23;6.43;;;;;;;;;;5040542;28;20450;-74
2022/04/23 01:05:44;;;;;;;15.18;6.78;;;;;;;;;;5039607;28;20095;-74
2022/04/23 01:08:12;;;;;;;11.55;6.18;;;;;;;;;;5037998;28;21218;-74
2022/04/23 01:10:39;;;;;;;10.95;6.25;;;;;;;;;;5041567;28;20048;-74
2022/04/23 01:13:08;;;;;;;16.65;6.93;;;;;;;;;;5035913;28;20112;-74
2022/04/23 01:15:35;;;;;;;12.20;6.95;;;;;;;;;;5039953;28;20472;-73
2022/04/23 01:18:05;;;;;;;13.10;6.75;;;;;;;;;;5038908;28;20053;-73
2022/04/23 01:20:34;;;;;;;13.80;6.55;;;;;;;;;;5036242;28;20158;-74
2022/04/23 01:23:01;;;;;;;13.20;6.78;;;;;;;;;;5032474;28;20056;-74
2022/04/23 01:25:33;;;;;;;19.15;7.40;;;;;;;;;;5035542;28;20081;-74
2022/04/23 01:28:01;;;;;;;10.55;7.13;;;;;;;;;;5039386;28;20107;-74
2022/04/23 01:30:28;;;;;;;11.55;6.88;;;;;;;;;;5041732;28;20049;-74
2022/04/23 01:32:55;;;;;;;12.20;7.63;;;;;;;;;;5036502;28;20797;-74
2022/04/23 01:35:23;;;;;;;10.52;6.75;;;;;;;;;;5040645;28;20041;-74
2022/04/23 01:37:51;;;;;;;15.93;7.80;;;;;;;;;;5042904;28;20143;-74
2022/04/23 01:40:19;;;;;;;13.95;7.05;;;;;;;;;;5041873;28;20041;-74
2022/04/23 01:42:47;;;;;;;15.75;7.97;;;;;;;;;;5037738;28;20049;-74
2022/04/23 01:45:14;;;;;;;12.02;6.75;;;;;;;;;;5039491;28;20124;-74
2022/04/23 01:47:41;;;;;;;16.08;7.25;;;;;;;;;;5035125;28;21370;-73
2022/04/23 01:50:09;;;;;;;15.50;8.35;;;;;;;;;;5038818;28;20038;-74
2022/04/23 01:52:36;;;;;;;12.73;7.95;;;;;;;;;;5038942;28;20056;-74
2022/04/23 01:55:05;;;;;;;14.75;7.75;;;;;;;;;;5041012;28;20052;-74
2022/04/23 01:57:32;;;;;;;14.32;7.85;;;;;;;;;;5036609;28;20882;-74
2022/04/23 01:59:59;;;;;;;14.13;8.77;;;;;;;;;;5042296;28;20048;-74
2022/04/23 02:02:26;;;;;;;17.77;8.45;;;;;;;;;;5037780;28;20114;-74
2022/04/23 02:04:54;;;;;;;16.63;8.30;;;;;;;;;;5031864;28;20060;-74
2022/04/23 02:07:21;;;;;;;11.48;8.10;;;;;;;;;;5035791;28;20358;-74
2022/04/23 02:09:48;;;;;;;14.98;8.70;;;;;;;;;;5034454;28;20057;-74
2022/04/23 02:12:17;;;;;;;15.20;8.52;;;;;;;;;;5036696;28;20045;-74
2022/04/23 02:14:44;;;;;;;11.93;7.60;;;;;;;;;;5037284;28;20049;-74
2022/04/23 02:17:12;;;;;;;14.40;8.43;;;;;;;;;;5037620;28;20706;-74
2022/04/23 02:19:39;;;;;;;15.43;8.70;;;;;;;;;;5034108;28;20045;-74
2022/04/23 02:22:06;;;;;;;11.90;7.90;;;;;;;;;;5043535;28;20049;-74
2022/04/23 02:24:33;;;;;;;14.43;8.30;;;;;;;;;;5030810;28;20437;-74
2022/04/23 02:27:01;;;;;;;13.40;8.02;;;;;;;;;;5045346;28;20056;-74
2022/04/23 02:29:29;;;;;;;17.80;9.15;;;;;;;;;;5038927;28;20454;-74
2022/04/23 02:31:56;;;;;;;15.38;10.05;;;;;;;;;;5038393;28;20049;-74
2022/04/23 02:34:24;;;;;;;13.65;8.98;;;;;;;;;;5037801;28;20057;-74
2022/04/23 02:36:51;;;;;;;14.20;8.68;;;;;;;;;;5033523;28;20106;-74
2022/04/23 02:39:18;;;;;;;14.85;8.85;;;;;;;;;;5030857;28;20053;-73
2022/04/23 02:41:45;;;;;;;18.27;9.05;;;;;;;;;;5036154;28;20408;-73
2022/04/23 02:44:15;;;;;;;16.55;9.18;;;;;;;;;;5037012;28;20446;-73
2022/04/23 02:46:45;;;;;;;15.68;9.40;;;;;;;;;;5046452;28;20488;-73
2022/04/23 02:49:13;;;;;;;15.10;8.60;;;;;;;;;;5046481;28;20057;-73
2022/04/23 02:51:42;;;;;;;14.40;9.40;;;;;;;;;;5039045;28;20090;-74
2022/04/23 02:54:09;;;;;;;14.68;9.10;;;;;;;;;;5050813;28;20115;-74
2022/04/23 02:56:36;;;;;;;13.52;9.57;;;;;;;;;;5042341;28;20052;-74
2022/04/23 02:59:05;;;;;;;14.75;9.90;;;;;;;;;;5044034;28;20056;-74
2022/04/23 03:01:36;;;;;;;13.57;9.93;;;;;;;;;;5044966;28;20107;-74
2022/04/23 03:04:05;;;;;;;14.13;9.32;;;;;;;;;;5041682;28;20152;-73
2022/04/23 03:06:33;;;;;;;12.80;9.55;;;;;;;;;;5039228;28;20051;-73
2022/04/23 03:09:02;;;;;;;15.60;9.32;;;;;;;;;;5039205;28;20045;-74
2022/04/23 03:11:30;;;;;;;15.50;9.63;;;;;;;;;;5049646;28;20453;-73
2022/04/23 03:13:58;;;;;;;14.38;10.10;;;;;;;;;;5042759;28;20062;-73
2022/04/23 03:16:26;;;;;;;16.90;9.98;;;;;;;;;;5047917;28;20143;-73
2022/04/23 03:18:53;;;;;;;17.15;10.05;;;;;;;;;;5049228;28;20492;-73
2022/04/23 03:21:22;;;;;;;14.63;10.02;;;;;;;;;;5034335;28;20048;-74
2022/04/23 03:23:49;;;;;;;13.70;9.70;;;;;;;;;;5042183;28;20044;-74
2022/04/23 03:26:16;;;;;;;17.75;9.70;;;;;;;;;;5039444;28;20057;-73
2022/04/23 03:28:44;;;;;;;16.70;9.98;;;;;;;;;;5049905;28;20063;-73
2022/04/23 03:31:11;;;;;;;17.35;9.77;;;;;;;;;;5044492;28;20057;-73
2022/04/23 03:33:38;;;;;;;17.10;10.27;;;;;;;;;;5038279;28;20056;-73
2022/04/23 03:36:06;;;;;;;15.02;10.15;;;;;;;;;;5037054;28;20049;-73
2022/04/23 03:38:35;;;;;;;17.77;10.35;;;;;;;;;;5040109;28;20049;-73
2022/04/23 03:41:02;;;;;;;15.45;9.27;;;;;;;;;;5037751;28;20069;-73
2022/04/23 03:43:31;;;;;;;17.67;10.32;;;;;;;;;;5035773;28;20060;-73
2022/04/23 03:45:58;;;;;;;19.25;10.32;;;;;;;;;;5042684;28;20112;-73
2022/04/23 03:48:26;;;;;;;18.65;10.18;;;;;;;;;;5043738;28;20053;-74
2022/04/23 03:50:53;;;;;;;17.63;10.55;;;;;;;;;;5052377;28;20144;-73
2022/04/23 03:53:20;;;;;;;20.25;10.50;;;;;;;;;;5051381;28;20082;-73
2022/04/23 03:55:49;;;;;;;15.10;10.07;;;;;;;;;;5042202;28;20842;-72
2022/04/23 03:58:16;;;;;;;15.10;9.73;;;;;;;;;;5042207;28;20103;-73
2022/04/23 04:00:43;;;;;;;16.73;9.50;;;;;;;;;;5044245;28;20543;-73
2022/04/23 04:03:10;;;;;;;16.65;9.68;;;;;;;;;;5040087;28;20068;-73
2022/04/23 04:05:37;;;;;;;13.50;9.75;;;;;;;;;;5044725;28;20592;-73
2022/04/23 04:08:05;;;;;;;15.55;9.07;;;;;;;;;;5040203;28;20048;-73
2022/04/23 04:10:32;;;;;;;18.17;11.48;;;;;;;;;;5041534;28;20251;-73
2022/04/23 04:13:02;;;;;;;17.13;10.65;;;;;;;;;;5036121;28;20063;-73
2022/04/23 04:15:29;;;;;;;12.65;8.90;;;;;;;;;;5039854;28;20059;-73
2022/04/23 04:17:57;;;;;;;15.10;9.95;;;;;;;;;;5039955;28;20107;-72
2022/04/23 04:20:25;;;;;;;15.55;10.20;;;;;;;;;;5042436;28;20041;-73
2022/04/23 04:22:52;;;;;;;18.38;9.65;;;;;;;;;;5044037;28;20053;-73
2022/04/23 04:25:20;;;;;;;12.10;9.57;;;;;;;;;;5046390;28;20045;-73
2022/04/23 04:27:47;;;;;;;14.82;9.88;;;;;;;;;;5037406;28;20110;-74
2022/04/23 04:30:15;;;;;;;13.45;9.88;;;;;;;;;;5032355;28;20083;-73
2022/04/23 04:32:43;;;;;;;14.10;10.15;;;;;;;;;;5036286;28;20121;-73
2022/04/23 04:35:11;;;;;;;16.05;9.48;;;;;;;;;;5046570;28;20531;-73
2022/04/23 04:37:39;;;;;;;14.07;9.88;;;;;;;;;;5041582;28;20064;-73
2022/04/23 04:40:07;;;;;;;14.60;9.90;;;;;;;;;;5038891;28;20059;-73
2022/04/23 04:42:34;;;;;;;13.98;9.45;;;;;;;;;;5045915;28;20056;-73
2022/04/23 04:45:02;;;;;;;14.98;10.00;;;;;;;;;;5045774;28;20418;-72
2022/04/23 04:47:31;;;;;;;15.25;10.23;;;;;;;;;;5040405;28;20075;-72
2022/04/23 04:49:58;;;;;;;15.32;9.27;;;;;;;;;;5042492;28;20578;-73
2022/04/23 04:52:25;;;;;;;14.82;9.65;;;;;;;;;;5048463;28;20044;-72
2022/04/23 04:54:52;;;;;;;12.85;10.10;;;;;;;;;;5044014;28;20056;-72
2022/04/23 04:57:19;;;;;;;13.00;9.18;;;;;;;;;;5046928;28;20064;-73
2022/04/23 04:59:47;;;;;;;11.05;8.95;;;;;;;;;;5040768;28;20871;-72
2022/04/23 05:02:14;;;;;;;12.52;9.10;;;;;;;;;;5051866;28;20053;-73
2022/04/23 05:04:42;;;;;;;16.70;10.55;;;;;;;;;;5045249;28;20046;-73
2022/04/23 05:07:10;;;;;;;14.55;9.73;;;;;;;;;;5044827;28;20479;-72
2022/04/23 05:09:37;;;;;;;13.27;10.05;;;;;;;;;;5042923;28;20160;-72
2022/04/23 05:12:05;;;;;;;12.90;10.13;;;;;;;;;;5044621;28;20115;-73
2022/04/23 05:14:32;;;;;;;12.20;9.50;;;;;;;;;;5034368;28;20153;-73
2022/04/23 05:16:59;;;;;;;10.73;9.02;;;;;;;;;;5048019;28;20118;-73
2022/04/23 05:19:26;;;;;;;13.52;9.35;;;;;;;;;;5046271;28;20150;-72
2022/04/23 05:21:55;;;;;;;12.85;9.50;;;;;;;;;;5037867;28;20113;-72
2022/04/23 05:24:24;;;;;;;14.02;10.23;;;;;;;;;;5042818;28;20095;-72
2022/04/23 05:26:51;;;;;;;13.32;8.95;;;;;;;;;;5046464;28;20044;-72
2022/04/23 05:29:18;;;;;;;14.57;9.50;;;;;;;;;;5048658;28;20056;-73
2022/04/23 05:31:45;;;;;;;16.25;9.07;;;;;;;;;;5048279;28;20040;-73
2022/04/23 05:34:12;;;;;;;12.13;8.88;;;;;;;;;;5043867;28;20065;-73
2022/04/23 05:36:40;;;;;;;11.98;9.10;;;;;;;;;;5043799;28;20047;-73
2022/04/23 05:39:08;;;;;;;11.52;9.05;;;;;;;;;;5044683;28;20402;-72
2022/04/23 05:41:35;;;;;;;13.95;8.73;;;;;;;;;;5045419;28;20046;-73
2022/04/23 05:44:03;;;;;;;14.00;9.20;;;;;;;;;;5041815;28;20056;-73
2022/04/23 05:46:30;;;;;;;13.30;9.50;;;;;;;;;;5038566;28;20045;-73
2022/04/23 05:48:59;;;;;;;10.82;9.48;;;;;;;;;;5037697;28;20053;-73
2022/04/23 05:51:27;;;;;;;11.35;8.60;;;;;;;;;;5038220;28;20059;-73
2022/04/23 05:53:54;;;;;;;16.58;8.65;;;;;;;;;;5041160;28;20443;-72
2022/04/23 05:56:23;;;;;;;11.15;8.73;;;;;;;;;;5039679;28;20049;-71
2022/04/23 05:58:50;;;;;;;14.68;9.15;;;;;;;;;;5037703;28;20104;-72
2022/04/23 06:01:17;;;;;;;11.75;8.32;;;;;;;;;;5044626;28;20183;-72
2022/04/23 06:03:44;;;;;;;13.75;8.40;;;;;;;;;;5043674;28;20499;-72
2022/04/23 06:06:11;;;;;;;11.27;8.40;;;;;;;;;;5039453;28;20066;-72
2022/04/23 06:08:42;;;;;;;10.45;8.05;;;;;;;;;;5053133;28;20492;-73
2022/04/23 06:11:09;;;;;;;14.18;8.20;;;;;;;;;;5043451;28;20045;-72
2022/04/23 06:13:38;;;;;;;11.77;8.40;;;;;;;;;;5043865;28;20049;-72
2022/04/23 06:16:05;;;;;;;11.57;8.60;;;;;;;;;;5038446;28;20553;-72
2022/04/23 06:18:32;;;;;;;11.13;8.70;;;;;;;;;;5038972;28;20049;-72
2022/04/23 06:21:00;;;;;;;10.55;8.10;;;;;;;;;;5037583;28;20095;-72
2022/04/23 06:23:27;;;;;;;9.32;7.95;;;;;;;;;;5040541;28;20140;-72
2022/04/23 06:25:55;;;;;;;10.60;8.60;;;;;;;;;;5042481;28;20068;-72
2022/04/23 06:28:22;;;;;;;9.55;7.95;;;;;;;;;;5040657;28;20068;-72
2022/04/23 06:30:50;;;;;;;9.77;8.02;;;;;;;;;;5036510;28;20060;-72
2022/04/23 06:33:17;;;;;;;11.35;8.25;;;;;;;;;;5041327;28;20049;-72
2022/04/23 06:35:45;;;;;;;23.08;7.85;;;;;;;;;;5043779;28;20080;-72
2022/04/23 06:38:12;;;;;;;12.15;7.53;;;;;;;;;;5036700;28;20057;-72
2022/04/23 06:40:39;;;;;;;12.48;8.00;;;;;;;;;;5043712;28;20051;-72
2022/04/23 06:43:07;;;;;;;12.52;8.20;;;;;;;;;;5040712;28;20045;-72
2022/04/23 06:45:34;;;;;;;9.82;8.00;;;;;;;;;;5036196;28;20045;-72
2022/04/23 06:48:04;;;;;;;11.68;7.60;;;;;;;;;;5041780;28;20060;-72
2022/04/23 06:50:31;;;;;;;15.23;8.60;;;;;;;;;;5038494;28;20133;-72
2022/04/23 06:52:59;;;;;;;16.65;8.05;;;;;;;;;;5034149;28;20144;-72
2022/04/23 06:55:26;;;;;;;10.60;7.28;;;;;;;;;;5041926;28;20463;-72
2022/04/23 06:57:53;;;;;;;10.65;7.72;;;;;;;;;;5043023;28;20056;-71
2022/04/23 07:00:22;;;;;;;12.27;7.57;;;;;;;;;;5040421;28;20073;-72
2022/04/23 07:02:49;;;;;;;15.68;7.90;;;;;;;;;;5044174;28;20075;-72
2022/04/23 07:05:18;;;;;;;11.35;7.85;;;;;;;;;;5039707;28;20057;-72
2022/04/23 07:07:55;;;;;;;11.48;8.65;;;;;;;;;;5042095;28;20510;-73
2022/04/23 07:10:22;;;;;;;11.88;8.20;;;;;;;;;;5037304;28;20103;-73
2022/04/23 07:12:52;;;;;;;10.77;7.97;;;;;;;;;;5043365;28;20045;-72
2022/04/23 07:15:19;;;;;;;10.63;7.75;;;;;;;;;;5042529;28;20052;-74
2022/04/23 07:17:47;;;;;;;11.43;7.93;;;;;;;;;;5039173;28;20048;-72
2022/04/23 07:20:15;;;;;;;11.52;8.25;;;;;;;;;;5040429;28;20136;-72
2022/04/23 07:24:03;;;;;;;10.25;8.57;;;;;;;;;;5035811;28;20048;-72
2022/04/23 07:25:33;;;;;;;10.10;7.45;;;;;;;;;;5039224;28;20052;-74
2022/04/23 07:28:00;;;;;;;10.13;8.02;;;;;;;;;;5041985;28;20059;-72
2022/04/23 07:30:27;;;;;;;15.30;8.10;;;;;;;;;;5042035;28;20053;-72
2022/04/23 07:32:55;;;;;;;10.20;8.10;;;;;;;;;;5036029;28;20094;-73
2022/04/23 07:38:12;;;;;;;13.55;8.10;;;;;;;;;;5040237;28;20064;-72
2022/04/23 07:40:40;;;;;;;13.75;8.60;;;;;;;;;;5040639;28;20044;-74
2022/04/23 07:43:10;;;;;;;14.35;8.23;;;;;;;;;;5036556;28;20124;-73
2022/04/23 07:45:38;;;;;;;9.25;7.57;;;;;;;;;;5036001;28;20087;-74
2022/04/23 07:48:06;;;;;;;10.73;8.02;;;;;;;;;;5032922;28;20115;-73
2022/04/23 07:50:33;;;;;;;12.98;8.73;;;;;;;;;;5035664;28;20103;-71
2022/04/23 07:53:00;;;;;;;12.68;8.35;;;;;;;;;;5038135;28;20056;-72
2022/04/23 07:55:30;;;;;;;11.63;9.23;;;;;;;;;;5043133;28;20053;-73
2022/04/23 07:57:58;;;;;;;13.23;7.75;;;;;;;;;;5029739;28;20053;-73
2022/04/23 08:00:26;;;;;;;10.15;8.50;;;;;;;;;;5040525;28;20106;-73
2022/04/23 08:02:53;;;;;;;9.55;8.02;;;;;;;;;;5033355;28;20060;-73
2022/04/23 08:05:20;;;;;;;11.18;7.63;;;;;;;;;;5038002;28;20150;-72
2022/04/23 08:07:48;;;;;;;12.27;7.55;;;;;;;;;;5038398;28;20130;-73
2022/04/23 08:10:15;;;;;;;9.93;7.13;;;;;;;;;;5041338;28;20056;-73
2022/04/23 08:12:43;;;;;;;8.88;7.07;;;;;;;;;;5040423;28;21529;-72
2022/04/23 08:15:12;;;;;;;13.15;6.90;;;;;;;;;;5039183;28;20056;-73
2022/04/23 08:17:40;;;;;;;11.32;6.85;;;;;;;;;;5043029;28;20103;-74
2022/04/23 08:20:08;;;;;;;17.85;7.10;;;;;;;;;;5042110;28;20446;-73
2022/04/23 08:22:35;;;;;;;13.43;6.75;;;;;;;;;;5016920;28;20098;-73
2022/04/23 08:25:02;;;;;;;40.22;7.50;;;;;;;;;;5034470;28;20052;-74
2022/04/23 08:27:29;;;;;;;14.50;7.03;;;;;;;;;;5035376;28;20057;-73
2022/04/23 08:32:54;;;;;;;10.50;7.38;;;;;;;;;;4978753;28;20046;-73
2022/04/23 08:35:21;;;;;;;16.60;7.30;;;;;;;;;;5018804;28;20053;-73
2022/04/23 08:37:50;;;;;;;10.10;6.97;;;;;;;;;;5033422;28;20500;-73
2022/04/23 08:40:17;;;;;;;14.45;6.97;;;;;;;;;;5040556;28;20057;-73
2022/04/23 08:42:44;;;;;;;15.50;6.50;;;;;;;;;;5037846;28;20057;-73
2022/04/23 08:45:13;;;;;;;9.88;6.82;;;;;;;;;;5042717;28;20057;-73
2022/04/23 08:47:44;;;;;;;10.52;6.70;;;;;;;;;;5037637;28;20049;-73
2022/04/23 08:50:11;;;;;;;28.30;7.45;;;;;;;;;;5038117;28;20049;-73
2022/04/23 08:52:41;;;;;;;11.25;6.20;;;;;;;;;;5034377;28;20496;-72
2022/04/23 08:55:09;;;;;;;9.25;6.05;;;;;;;;;;5034292;28;20060;-72
2022/04/23 08:57:36;;;;;;;14.10;6.78;;;;;;;;;;5039116;28;20053;-72
2022/04/23 09:00:08;;;;;;;11.10;6.55;;;;;;;;;;5042567;28;20063;-72
2022/04/23 09:02:37;;;;;;;14.48;6.57;;;;;;;;;;5041399;28;20041;-72
2022/04/23 09:05:04;;;;;;;10.07;6.30;;;;;;;;;;5041077;28;20061;-72
2022/04/23 09:07:32;;;;;;;8.70;6.78;;;;;;;;;;5036600;28;20049;-72
2022/04/23 09:09:59;;;;;;;14.65;6.03;;;;;;;;;;5043174;28;20060;-73
2022/04/23 09:12:28;;;;;;;18.33;6.65;;;;;;;;;;5044586;28;20041;-73
2022/04/23 09:15:05;;;;;;;14.23;6.78;;;;;;;;;;5038756;28;20053;-73
2022/04/23 09:26:15;;;;;;;12.07;6.40;;;;;;;;;;4969249;28;20042;-72
2022/04/23 09:28:46;;;;;;;14.73;7.10;;;;;;;;;;5030379;28;20079;-72
2022/04/23 09:31:15;;;;;;;13.55;6.85;;;;;;;;;;5039680;28;20492;-73
2022/04/23 09:33:46;;;;;;;13.48;7.32;;;;;;;;;;5041317;28;20045;-72
2022/04/23 09:36:15;;;;;;;11.18;6.97;;;;;;;;;;5046032;28;20045;-71
2022/04/23 09:38:42;;;;;;;13.20;6.60;;;;;;;;;;5038556;28;20111;-72
2022/04/23 09:41:20;;;;;;;12.90;6.78;;;;;;;;;;5039046;28;20080;-75
2022/04/23 09:43:49;;;;;;;20.23;7.22;;;;;;;;;;5040020;28;20054;-70
2022/04/23 09:46:16;;;;;;;12.35;7.20;;;;;;;;;;5040794;28;20053;-71
2022/04/23 09:48:44;;;;;;;9.18;7.13;;;;;;;;;;5037104;28;20107;-72
2022/04/23 09:51:24;;;;;;;15.20;6.72;;;;;;;;;;5044608;28;20065;-74
2022/04/23 09:53:53;;;;;;;8.30;6.25;;;;;;;;;;5044561;28;20647;-75
2022/04/23 09:56:21;;;;;;;20.05;6.65;;;;;;;;;;5045690;28;20087;-75
2022/04/23 09:58:49;;;;;;;8.18;6.07;;;;;;;;;;5040344;28;20579;-75
2022/04/23 10:01:17;;;;;;;13.20;6.45;;;;;;;;;;5044762;28;20084;-75
2022/04/23 10:03:46;;;;;;;9.10;7.05;;;;;;;;;;5037763;28;20049;-75
2022/04/23 10:06:13;;;;;;;8.10;6.10;;;;;;;;;;5041042;28;20057;-74
2022/04/23 10:08:45;;;;;;;8.55;5.82;;;;;;;;;;5034469;28;20041;-74
2022/04/23 10:11:13;;;;;;;9.65;5.85;;;;;;;;;;5037289;28;20068;-74
2022/04/23 10:13:41;;;;;;;12.57;6.15;;;;;;;;;;5039855;28;20064;-74
2022/04/23 10:16:10;;;;;;;12.75;6.80;;;;;;;;;;5039339;28;20076;-74
2022/04/23 10:18:38;;;;;;;6.97;6.28;;;;;;;;;;5033249;28;20141;-74
2022/04/23 10:21:08;;;;;;;9.15;6.60;;;;;;;;;;5035108;28;20049;-74
2022/04/23 10:23:43;;;;;;;16.08;6.60;;;;;;;;;;5047089;28;20550;-74
2022/04/23 10:26:20;;;;;;;11.00;6.57;;;;;;;;;;5039551;28;20529;-74
2022/04/23 10:28:48;;;;;;;9.98;6.13;;;;;;;;;;5045246;28;20064;-74
2022/04/23 10:31:16;;;;;;;14.48;6.43;;;;;;;;;;5037364;28;20057;-74
2022/04/23 10:33:46;;;;;;;10.80;6.80;;;;;;;;;;5040490;28;20053;-74
2022/04/23 10:36:13;;;;;;;11.07;6.90;;;;;;;;;;5041687;28;20049;-74
2022/04/23 10:38:44;;;;;;;17.10;7.00;;;;;;;;;;5051443;28;20136;-74
2022/04/23 10:41:12;;;;;;;8.65;6.68;;;;;;;;;;5043635;28;20049;-74
2022/04/23 10:43:48;;;;;;;14.07;6.43;;;;;;;;;;5040759;28;20066;-74
2022/04/23 10:46:37;;;;;;;7.88;6.93;;;;;;;;;;5041536;28;20049;-74
2022/04/23 10:49:13;;;;;;;9.38;6.60;;;;;;;;;;5035863;28;20789;-74
2022/04/23 10:51:51;;;;;;;11.27;6.90;;;;;;;;;;5038942;28;20491;-74
2022/04/23 10:54:21;;;;;;;17.05;7.47;;;;;;;;;;5046162;28;20416;-74
2022/04/23 10:56:53;;;;;;;9.75;6.30;;;;;;;;;;5040190;28;20049;-74
2022/04/23 10:59:42;;;;;;;9.75;6.75;;;;;;;;;;5039330;28;20144;-74
2022/04/23 11:02:30;;;;;;;13.32;6.93;;;;;;;;;;5040343;28;20528;-74
2022/04/23 11:13:24;;;;;;;7.82;6.60;;;;;;;;;;5041079;28;20036;-74
2022/04/23 11:16:13;;;;;;;7.15;6.32;;;;;;;;;;5035722;28;20091;-74
2022/04/23 11:18:41;;;;;;;18.90;5.80;;;;;;;;;;5044988;28;20053;-73
2022/04/23 11:21:13;;;;;;;6.28;5.65;;;;;;;;;;5045253;28;20052;-74
2022/04/23 11:23:42;;;;;;;15.03;4.73;;;;;;;;;;5045556;28;20365;-74
2022/04/23 11:26:11;;;;;;;11.15;5.13;;;;;;;;;;5040251;28;20054;-74
2022/04/23 11:28:39;;;;;;;6.85;5.78;;;;;;;;;;5037325;28;20076;-74
2022/04/23 11:31:12;;;;;;;28.50;6.25;;;;;;;;;;5033722;28;20053;-74
2022/04/23 11:33:50;;;;;;;7.90;5.70;;;;;;;;;;5029896;28;20680;-75
2022/04/23 11:36:17;;;;;;;9.48;5.30;;;;;;;;;;5040647;28;20077;-74
2022/04/23 11:38:44;;;;;;;10.07;5.05;;;;;;;;;;5042602;28;20045;-74
2022/04/23 11:41:12;;;;;;;7.40;5.07;;;;;;;;;;5044668;28;20213;-74
2022/04/23 11:43:39;;;;;;;12.38;5.53;;;;;;;;;;5039803;28;20049;-75
2022/04/23 11:46:07;;;;;;;8.77;5.25;;;;;;;;;;5040378;28;20061;-75
2022/04/23 11:48:43;;;;;;;7.13;5.50;;;;;;;;;;5044063;28;20053;-74
2022/04/23 11:51:12;;;;;;;9.32;4.93;;;;;;;;;;5032191;28;20049;-75
2022/04/23 11:53:54;;;;;;;10.52;5.25;;;;;;;;;;5040551;28;20057;-75
2022/04/23 11:56:32;;;;;;;6.13;4.80;;;;;;;;;;5039765;28;20053;-76
2022/04/23 11:59:01;;;;;;;7.47;4.78;;;;;;;;;;5031851;28;20052;-75
2022/04/23 12:01:28;;;;;;;16.10;4.25;;;;;;;;;;5035078;28;20061;-75
2022/04/23 12:03:57;;;;;;;12.32;4.35;;;;;;;;;;5034635;28;20055;-75
2022/04/23 12:06:25;;;;;;;6.57;4.38;;;;;;;;;;5039217;28;20045;-75
2022/04/23 12:08:52;;;;;;;6.95;4.65;;;;;;;;;;5038475;28;20076;-75
2022/04/23 12:11:24;;;;;;;12.32;5.05;;;;;;;;;;5047625;28;20412;-75
2022/04/23 12:13:51;;;;;;;7.35;4.28;;;;;;;;;;5039007;28;20057;-75
2022/04/23 12:16:31;;;;;;;10.77;4.63;;;;;;;;;;5045255;28;20373;-75
2022/04/23 12:19:01;;;;;;;11.20;5.07;;;;;;;;;;5034288;28;20045;-75
2022/04/23 12:21:28;;;;;;;5.18;4.53;;;;;;;;;;5040686;28;20051;-75
2022/04/23 12:23:56;;;;;;;13.10;4.40;;;;;;;;;;5040422;28;20497;-75
2022/04/23 12:26:24;;;;;;;14.43;4.90;;;;;;;;;;5037103;28;20140;-75
2022/04/23 12:43:18;;;;;;;7.30;4.32;;;;;;;;;;5036304;28;20140;-75
2022/04/23 12:45:45;;;;;;;4.75;4.20;;;;;;;;;;5038421;28;20048;-75
2022/04/23 12:48:14;;;;;;;5.13;3.90;;;;;;;;;;5042652;28;20044;-75
2022/04/23 12:50:44;;;;;;;8.57;4.32;;;;;;;;;;5038679;28;20612;-75
2022/04/23 12:53:11;;;;;;;7.07;4.30;;;;;;;;;;5048566;28;20081;-75
2022/04/23 12:55:39;;;;;;;10.60;3.67;;;;;;;;;;5040857;28;20057;-75
2022/04/23 12:58:07;;;;;;;6.53;3.90;;;;;;;;;;5040005;28;20985;-75
2022/04/23 13:00:35;;;;;;;9.10;3.45;;;;;;;;;;5043330;28;20055;-74
2022/04/23 13:03:14;;;;;;;10.07;4.18;;;;;;;;;;5038622;28;20139;-75
2022/04/23 13:05:43;;;;;;;8.00;4.00;;;;;;;;;;5036730;28;20060;-75
2022/04/23 13:10:55;;;;;;;8.90;4.07;;;;;;;;;;5041142;28;20056;-75
2022/04/23 13:13:23;;;;;;;4.45;4.05;;;;;;;;;;5036810;28;20053;-75
2022/04/23 13:15:50;;;;;;;5.07;3.70;;;;;;;;;;5042088;28;20079;-75
2022/04/23 13:18:17;;;;;;;8.68;3.40;;;;;;;;;;5037507;28;20110;-75
2022/04/23 13:20:46;;;;;;;7.78;3.90;;;;;;;;;;5034896;28;20476;-75
2022/04/23 13:23:14;;;;;;;6.60;3.53;;;;;;;;;;5040908;28;20496;-75
2022/04/23 13:25:41;;;;;;;7.55;3.65;;;;;;;;;;5039056;28;20064;-75
2022/04/23 13:28:08;;;;;;;14.30;3.80;;;;;;;;;;5037165;28;20408;-75
2022/04/23 13:30:36;;;;;;;7.13;4.10;;;;;;;;;;5041796;28;20140;-74
2022/04/23 13:33:03;;;;;;;4.50;3.70;;;;;;;;;;5043288;28;20542;-75
2022/04/23 13:35:31;;;;;;;6.25;3.65;;;;;;;;;;5037180;28;20061;-75
2022/04/23 13:38:00;;;;;;;5.25;4.10;;;;;;;;;;5038473;28;20061;-75
2022/04/23 13:40:27;;;;;;;6.85;4.63;;;;;;;;;;5042882;28;20396;-75
2022/04/23 13:42:54;;;;;;;12.32;3.72;;;;;;;;;;5042991;28;20053;-75
2022/04/23 13:45:21;;;;;;;7.63;3.60;;;;;;;;;;5041951;28;20053;-75
2022/04/23 13:47:50;;;;;;;8.32;4.25;;;;;;;;;;5044067;28;20064;-75
2022/04/23 13:50:17;;;;;;;5.85;4.05;;;;;;;;;;5046892;28;20520;-75
2022/04/23 13:52:45;;;;;;;6.35;3.75;;;;;;;;;;5044988;28;20044;-75
2022/04/23 13:55:13;;;;;;;5.32;3.78;;;;;;;;;;5044246;28;20049;-75
2022/04/23 13:57:40;;;;;;;6.10;3.70;;;;;;;;;;5042497;28;20114;-75
2022/04/23 14:00:08;;;;;;;8.55;3.67;;;;;;;;;;5043965;28;20300;-75
2022/04/23 14:10:52;;;;;;;4.00;3.60;;;;;;;;;;5043546;28;20052;-75
2022/04/23 14:13:20;;;;;;;10.95;4.05;;;;;;;;;;5042309;28;20492;-75
2022/04/23 14:15:48;;;;;;;7.85;3.50;;;;;;;;;;5040654;28;20067;-75
2022/04/23 14:18:15;;;;;;;9.65;3.90;;;;;;;;;;5041874;28;20056;-75
2022/04/23 14:20:42;;;;;;;10.45;3.67;;;;;;;;;;5044255;28;20057;-74
2022/04/23 14:23:09;;;;;;;3.85;3.20;;;;;;;;;;5043767;28;20056;-74
2022/04/23 14:25:37;;;;;;;7.05;3.20;;;;;;;;;;5040159;28;20561;-74
2022/04/23 14:28:06;;;;;;;4.45;3.00;;;;;;;;;;5039941;28;20063;-74
2022/04/23 14:30:33;;;;;;;3.83;2.92;;;;;;;;;;5043059;28;20052;-74
2022/04/23 14:33:00;;;;;;;10.52;3.25;;;;;;;;;;5038965;28;20127;-74
2022/04/23 14:35:28;;;;;;;6.20;3.03;;;;;;;;;;5037230;28;20060;-74
2022/04/23 14:37:56;;;;;;;5.00;3.42;;;;;;;;;;5050527;28;20669;-74
2022/04/23 14:40:23;;;;;;;5.20;3.20;;;;;;;;;;5034606;28;20060;-74
2022/04/23 14:42:55;;;;;;;54.60;5.70;;;;;;;;;;5033970;28;20492;-74
2022/04/23 14:45:24;;;;;;;3.93;2.80;;;;;;;;;;5038597;28;20106;-74
2022/04/23 14:47:53;;;;;;;7.18;3.70;;;;;;;;;;5037360;28;20057;-74
2022/04/23 14:50:20;;;;;;;7.22;3.30;;;;;;;;;;5036969;28;20048;-74
2022/04/23 14:55:32;;;;;;;8.35;3.25;;;;;;;;;;5035230;28;20854;-74
2022/04/23 14:57:59;;;;;;;4.30;2.83;;;;;;;;;;5036956;28;20064;-74
2022/04/23 15:00:28;;;;;;;4.40;3.08;;;;;;;;;;5037695;28;20060;-74
2022/04/23 15:02:57;;;;;;;6.53;2.55;;;;;;;;;;5035340;28;20159;-74
2022/04/23 15:05:24;;;;;;;5.70;2.55;;;;;;;;;;5033866;28;20047;-74
2022/04/23 15:07:51;;;;;;;4.85;2.95;;;;;;;;;;5042507;28;20060;-74
2022/04/23 15:10:19;;;;;;;8.40;2.70;;;;;;;;;;5041709;28;20053;-74
2022/04/23 15:12:46;;;;;;;4.85;3.05;;;;;;;;;;5031386;28;20081;-74
2022/04/23 15:15:14;;;;;;;5.05;2.95;;;;;;;;;;5040132;28;20056;-74
2022/04/23 15:17:43;;;;;;;9.75;2.80;;;;;;;;;;5040447;28;20061;-74
2022/04/23 15:20:11;;;;;;;3.80;2.78;;;;;;;;;;5041116;28;20068;-74
2022/04/23 15:22:39;;;;;;;3.25;2.55;;;;;;;;;;5041300;28;20095;-74
2022/04/23 15:25:06;;;;;;;4.50;2.92;;;;;;;;;;5041959;28;20040;-74
2022/04/23 15:27:34;;;;;;;19.02;3.22;;;;;;;;;;5034738;28;20436;-74
2022/04/23 15:30:01;;;;;;;3.33;2.80;;;;;;;;;;5035638;28;20053;-74
2022/04/23 15:32:29;;;;;;;6.70;2.80;;;;;;;;;;5038560;28;20052;-74